Time;durP1;ratioP1;P1;durP2;ratioP2;P2;SDS_P1;SDS_P2;PMS_P1;PMS_P2;Temp;Humidity;BMP_temperature;BMP_pressure;BME280_temperature;BME280_humidity;BME280_pressure;Samples;Min_cycle;Max_cycle;Signal;HPM_P1;HPM_P2
2024/02/28 00:00:30;;;;;;;5.35;4.95;;;;;;;5.80;100.00;92849.84;2106380;28;20047;-82
2024/02/28 00:01:31;;;;;;;5.65;5.25;;;;;;;5.66;100.00;92847.28;2122442;27;20498;-80
2024/02/28 00:02:32;;;;;;;5.80;5.38;;;;;;;5.75;100.00;92842.28;2122300;27;20056;-82
2024/02/28 00:03:33;;;;;;;5.30;4.97;;;;;;;5.71;100.00;92846.91;2100020;28;20035;-83
2024/02/28 00:04:35;;;;;;;5.60;5.20;;;;;;;5.84;100.00;92849.81;2114112;28;20031;-83
2024/02/28 00:05:36;;;;;;;5.47;5.07;;;;;;;5.89;100.00;92844.84;2106883;28;20090;-81
2024/02/28 00:06:38;;;;;;;5.63;5.22;;;;;;;5.90;100.00;92841.03;2113837;28;20488;-81
2024/02/28 00:07:39;;;;;;;5.60;5.10;;;;;;;6.01;100.00;92846.28;2121146;27;20384;-81
2024/02/28 00:08:40;;;;;;;6.20;5.60;;;;;;;5.99;100.00;92844.03;2098761;28;20035;-79
2024/02/28 00:09:41;;;;;;;5.28;4.97;;;;;;;5.81;100.00;92840.75;2106879;28;20067;-81
2024/02/28 00:10:42;;;;;;;5.68;5.18;;;;;;;5.86;100.00;92842.22;2107587;28;20020;-83
2024/02/28 00:11:46;;;;;;;5.72;5.32;;;;;;;5.85;100.00;92841.47;2109434;27;20030;-79
2024/02/28 00:12:47;;;;;;;5.57;5.13;;;;;;;5.86;100.00;92847.53;2101606;28;20111;-81
2024/02/28 00:13:48;;;;;;;5.70;5.30;;;;;;;5.90;100.00;92845.59;2025993;28;20051;-82
2024/02/28 00:14:49;;;;;;;5.57;5.07;;;;;;;5.80;100.00;92833.94;2043401;28;20236;-82
2024/02/28 00:15:50;;;;;;;5.15;4.85;;;;;;;5.85;100.00;92838.06;2035900;28;20110;-80
2024/02/28 00:16:51;;;;;;;5.80;5.40;;;;;;;5.85;100.00;92840.72;2036871;28;20035;-83
2024/02/28 00:17:54;;;;;;;5.88;5.47;;;;;;;5.75;100.00;92843.06;2046776;28;22139;-81
2024/02/28 00:18:55;;;;;;;5.80;5.30;;;;;;;5.56;100.00;92841.69;2064632;27;20036;-80
2024/02/28 00:19:56;;;;;;;5.07;4.78;;;;;;;5.67;100.00;92838.22;2066522;28;20038;-82
2024/02/28 00:20:57;;;;;;;5.43;5.03;;;;;;;5.59;100.00;92842.81;2072941;27;20686;-81
2024/02/28 00:22:00;;;;;;;5.55;5.15;;;;;;;5.63;100.00;92840.16;2074821;28;20070;-82
2024/02/28 00:23:01;;;;;;;6.10;5.53;;;;;;;5.63;100.00;92850.75;2083285;28;23111;-81
2024/02/28 00:24:02;;;;;;;5.10;4.80;;;;;;;5.72;100.00;92843.84;2088906;28;20039;-80
2024/02/28 00:25:06;;;;;;;5.40;5.00;;;;;;;5.67;100.00;92846.19;2100902;27;20110;-81
2024/02/28 00:26:07;;;;;;;5.43;5.03;;;;;;;5.65;100.00;92849.19;2105053;27;20190;-80
2024/02/28 00:27:08;;;;;;;5.15;4.85;;;;;;;5.63;100.00;92848.09;2100733;27;20424;-80
2024/02/28 00:28:09;;;;;;;5.43;5.03;;;;;;;5.51;100.00;92841.34;2088611;28;20166;-81
2024/02/28 00:29:10;;;;;;;5.28;4.88;;;;;;;5.54;100.00;92844.00;2091650;28;20032;-80
2024/02/28 00:30:11;;;;;;;5.28;4.88;;;;;;;5.54;100.00;92846.63;2105745;28;20051;-81
2024/02/28 00:31:12;;;;;;;5.50;5.10;;;;;;;5.55;100.00;92842.84;2098273;28;20036;-81
2024/02/28 00:32:16;;;;;;;5.07;4.70;;;;;;;5.56;100.00;92847.00;2101959;28;20084;-81
2024/02/28 00:33:17;;;;;;;5.22;4.93;;;;;;;5.66;100.00;92842.75;2118618;27;20015;-81
2024/02/28 00:34:18;;;;;;;5.32;4.93;;;;;;;5.64;100.00;92845.03;2118401;27;20096;-83
2024/02/28 00:35:19;;;;;;;5.53;5.20;;;;;;;5.57;100.00;92845.09;2106654;28;20028;-80
2024/02/28 00:36:20;;;;;;;5.25;4.93;;;;;;;5.60;100.00;92840.91;2106716;28;20028;-80
2024/02/28 00:37:21;;;;;;;5.47;5.00;;;;;;;5.55;100.00;92844.75;2114926;28;20039;-80
2024/02/28 00:38:22;;;;;;;5.40;4.90;;;;;;;5.52;100.00;92840.22;2123527;27;20034;-80
2024/02/28 00:39:23;;;;;;;5.53;5.13;;;;;;;5.45;100.00;92843.69;2119394;27;20505;-81
2024/02/28 00:40:25;;;;;;;5.30;4.90;;;;;;;5.54;100.00;92846.63;2110514;28;20055;-83
2024/02/28 00:41:28;;;;;;;5.50;5.10;;;;;;;5.57;100.00;92845.09;2104596;27;20024;-83
2024/02/28 00:42:29;;;;;;;5.57;5.18;;;;;;;5.51;100.00;92842.09;2111313;28;20036;-81
2024/02/28 00:43:30;;;;;;;6.07;5.57;;;;;;;5.50;100.00;92848.56;2106053;28;20860;-82
2024/02/28 00:44:31;;;;;;;6.10;5.60;;;;;;;5.54;100.00;92843.25;2106628;28;20031;-81
2024/02/28 00:45:47;;;;;;;5.80;5.40;;;;;;;5.51;100.00;92839.47;2120669;27;20379;-80
2024/02/28 00:46:48;;;;;;;5.20;4.80;;;;;;;5.47;100.00;92840.63;2114353;28;20117;-80
2024/02/28 00:47:49;;;;;;;5.50;5.10;;;;;;;5.51;100.00;92846.66;2098168;28;20031;-81
2024/02/28 00:48:50;;;;;;;5.43;5.05;;;;;;;5.52;100.00;92843.59;2096141;28;20024;-79
2024/02/28 00:49:51;;;;;;;5.80;5.40;;;;;;;5.50;100.00;92839.84;2106351;28;20031;-82
2024/02/28 00:50:52;;;;;;;5.72;5.32;;;;;;;5.43;100.00;92845.94;2091630;28;20035;-82
2024/02/28 00:51:53;;;;;;;5.72;5.32;;;;;;;5.46;100.00;92847.81;2054437;28;20086;-81
2024/02/28 00:52:54;;;;;;;5.75;5.35;;;;;;;5.40;100.00;92840.66;2011837;28;22435;-81
2024/02/28 00:53:56;;;;;;;6.22;5.72;;;;;;;5.32;100.00;92847.19;2073402;28;20054;-80
2024/02/28 00:54:57;;;;;;;5.60;5.20;;;;;;;5.39;100.00;92839.16;1961137;27;22195;-82
2024/02/28 00:55:58;;;;;;;5.75;5.35;;;;;;;5.40;100.00;92853.91;1974149;28;20034;-79
2024/02/28 00:56:59;;;;;;;5.70;5.30;;;;;;;5.42;100.00;92843.69;1952397;28;22838;-78
2024/02/28 00:58:00;;;;;;;5.47;5.07;;;;;;;5.43;100.00;92842.53;1907734;28;20027;-79
2024/02/28 00:59:02;;;;;;;5.82;5.32;;;;;;;5.51;100.00;92844.00;1952987;28;20031;-80
2024/02/28 01:00:05;;;;;;;5.80;5.40;;;;;;;5.38;100.00;92851.66;1937501;28;21075;-81
2024/02/28 01:01:07;;;;;;;5.70;5.30;;;;;;;5.47;100.00;92844.03;1927693;27;20035;-82
2024/02/28 01:02:07;;;;;;;5.72;5.28;;;;;;;5.47;100.00;92848.56;1971245;28;22023;-80
2024/02/28 01:03:10;;;;;;;5.47;5.07;;;;;;;5.56;100.00;92846.25;1941652;28;20074;-79
2024/02/28 01:04:11;;;;;;;5.10;4.70;;;;;;;5.53;100.00;92847.00;1980160;27;21399;-83
2024/02/28 01:05:12;;;;;;;5.38;4.97;;;;;;;5.54;100.00;92848.53;2005144;28;20315;-81
2024/02/28 01:06:15;;;;;;;5.60;5.20;;;;;;;5.53;100.00;92844.34;1993026;28;20043;-80
2024/02/28 01:07:16;;;;;;;5.47;5.07;;;;;;;5.56;100.00;92856.84;1996083;28;20120;-80
2024/02/28 01:08:18;;;;;;;5.80;5.30;;;;;;;5.54;100.00;92849.28;2032803;27;20023;-80
2024/02/28 01:09:19;;;;;;;5.40;5.00;;;;;;;5.53;100.00;92852.31;2006973;27;22301;-80
2024/02/28 01:10:20;;;;;;;5.40;5.00;;;;;;;5.59;100.00;92856.06;1961006;28;20040;-81
2024/02/28 01:11:21;;;;;;;5.80;5.40;;;;;;;5.59;100.00;92852.66;1982283;28;20024;-81
2024/02/28 01:12:21;;;;;;;5.75;5.35;;;;;;;5.39;100.00;92857.72;1973512;28;20063;-81
2024/02/28 01:13:23;;;;;;;6.07;5.57;;;;;;;5.48;100.00;92858.03;1977997;27;20151;-80
2024/02/28 01:14:24;;;;;;;5.53;5.15;;;;;;;5.38;100.00;92856.22;1994960;27;20023;-81
2024/02/28 01:15:25;;;;;;;5.80;5.30;;;;;;;5.47;100.00;92853.88;1972663;28;20034;-81
2024/02/28 01:16:27;;;;;;;5.70;5.30;;;;;;;5.41;100.00;92850.91;1956926;28;20074;-81
2024/02/28 01:17:28;;;;;;;6.03;5.53;;;;;;;5.46;100.00;92858.44;1971400;27;20050;-80
2024/02/28 01:18:30;;;;;;;5.90;5.40;;;;;;;5.57;100.00;92853.03;1955617;27;20078;-79
2024/02/28 01:19:31;;;;;;;6.00;5.60;;;;;;;5.48;100.00;92861.44;1977310;27;20059;-80
2024/02/28 01:20:32;;;;;;;6.18;5.68;;;;;;;5.54;100.00;92859.91;1975271;27;20023;-79
2024/02/28 01:21:33;;;;;;;6.20;5.70;;;;;;;5.47;100.00;92857.28;1987626;27;20031;-80
2024/02/28 01:22:35;;;;;;;6.28;5.88;;;;;;;5.50;100.00;92864.47;1990618;27;20154;-80
2024/02/28 01:23:36;;;;;;;5.82;5.43;;;;;;;5.59;100.00;92860.63;2053975;27;20479;-79
2024/02/28 01:24:37;;;;;;;5.75;5.32;;;;;;;5.55;100.00;92863.28;2075752;27;20034;-82
2024/02/28 01:25:38;;;;;;;6.00;5.50;;;;;;;5.58;100.00;92861.78;2087524;27;20036;-80
2024/02/28 01:26:40;;;;;;;6.05;5.55;;;;;;;5.61;100.00;92864.38;2059868;27;20105;-81
2024/02/28 01:27:41;;;;;;;5.68;5.25;;;;;;;5.58;100.00;92864.44;2048329;27;20024;-80
2024/02/28 01:28:43;;;;;;;6.13;5.72;;;;;;;5.62;100.00;92867.78;2045315;28;20031;-79
2024/02/28 01:29:44;;;;;;;6.40;5.90;;;;;;;5.49;100.00;92864.88;2056139;27;22046;-80
2024/02/28 01:30:44;;;;;;;5.90;5.40;;;;;;;5.31;100.00;92867.59;2066325;27;20118;-81
2024/02/28 01:31:45;;;;;;;6.20;5.70;;;;;;;5.43;100.00;92871.69;2058125;27;20019;-81
2024/02/28 01:32:46;;;;;;;6.15;5.65;;;;;;;5.40;100.00;92869.81;2068871;28;20051;-80
2024/02/28 01:33:47;;;;;;;6.00;5.50;;;;;;;5.42;100.00;92870.19;2080503;27;20049;-80
2024/02/28 01:34:48;;;;;;;5.57;5.18;;;;;;;5.41;100.00;92866.03;2098744;27;20091;-81
2024/02/28 01:35:49;;;;;;;5.53;5.15;;;;;;;5.51;100.00;92865.97;2101257;27;20983;-81
2024/02/28 01:36:50;;;;;;;5.53;5.03;;;;;;;5.37;100.00;92868.72;2104645;27;20115;-80
2024/02/28 01:37:51;;;;;;;5.57;5.18;;;;;;;5.41;100.00;92869.44;2113561;27;20068;-81
2024/02/28 01:38:52;;;;;;;5.82;5.38;;;;;;;5.44;100.00;92871.31;2114672;28;20023;-83
2024/02/28 01:39:53;;;;;;;5.47;5.07;;;;;;;5.40;100.00;92872.47;2097905;28;20020;-79
2024/02/28 01:40:54;;;;;;;5.10;4.80;;;;;;;5.26;100.00;92865.34;2097989;28;20017;-80
2024/02/28 01:41:57;;;;;;;5.40;5.00;;;;;;;5.28;100.00;92866.50;2114707;28;20027;-81
2024/02/28 01:43:07;;;;;;;5.13;4.78;;;;;;;5.30;100.00;92856.25;2114644;28;20023;-80
2024/02/28 01:44:08;;;;;;;4.97;4.57;;;;;;;5.44;100.00;92868.66;2107671;28;20028;-80
2024/02/28 01:45:14;;;;;;;4.97;4.57;;;;;;;5.47;100.00;92859.19;2106472;28;20035;-79
2024/02/28 01:46:27;;;;;;;5.20;4.88;;;;;;;5.50;100.00;92864.47;2106460;28;20383;-80
2024/02/28 01:47:28;;;;;;;5.47;5.07;;;;;;;5.32;100.00;92866.47;2109839;27;20105;-80
2024/02/28 01:48:29;;;;;;;5.50;5.10;;;;;;;5.33;100.00;92873.28;2106318;28;20024;-80
2024/02/28 01:49:30;;;;;;;5.70;5.30;;;;;;;5.24;100.00;92867.66;2099178;28;20516;-80
2024/02/28 01:50:32;;;;;;;5.50;5.05;;;;;;;5.32;100.00;92863.81;2107971;28;20031;-81
2024/02/28 01:51:34;;;;;;;6.07;5.57;;;;;;;5.28;100.00;92868.38;2112015;28;20486;-80
2024/02/28 01:52:36;;;;;;;5.32;4.93;;;;;;;5.31;100.00;92859.66;2106396;28;20028;-80
2024/02/28 01:53:37;;;;;;;5.40;5.00;;;;;;;5.35;100.00;92867.59;2114807;27;20020;-80
2024/02/28 01:54:38;;;;;;;5.80;5.30;;;;;;;5.50;100.00;92867.13;2123081;27;20030;-81
2024/02/28 01:55:40;;;;;;;5.40;5.00;;;;;;;5.41;100.00;92868.69;2106286;28;20123;-81
2024/02/28 01:56:41;;;;;;;5.85;5.45;;;;;;;5.45;100.00;92862.22;2100613;28;20231;-81
2024/02/28 01:57:42;;;;;;;5.22;4.82;;;;;;;5.46;100.00;92876.97;2109779;28;20020;-80
2024/02/28 01:58:47;;;;;;;6.03;5.47;;;;;;;5.48;100.00;92869.38;2106441;28;20530;-80
2024/02/28 01:59:48;;;;;;;5.32;4.93;;;;;;;5.51;100.00;92867.88;2114331;28;20099;-82
2024/02/28 02:00:49;;;;;;;5.30;4.90;;;;;;;5.49;100.00;92878.88;2114596;28;20103;-81
2024/02/28 02:01:50;;;;;;;5.60;5.07;;;;;;;5.34;100.00;92881.97;2111663;28;20028;-80
2024/02/28 02:02:51;;;;;;;5.97;5.47;;;;;;;5.31;100.00;92870.25;2095699;28;20035;-81
2024/02/28 02:03:53;;;;;;;5.38;4.97;;;;;;;5.30;100.00;92872.16;2109849;28;20023;-80
2024/02/28 02:04:54;;;;;;;5.53;5.13;;;;;;;5.36;100.00;92867.22;2120531;27;20018;-81
2024/02/28 02:05:55;;;;;;;5.78;5.28;;;;;;;5.36;100.00;92885.75;2118375;27;20030;-81
2024/02/28 02:06:58;;;;;;;5.28;4.88;;;;;;;5.29;100.00;92875.19;2108343;28;20632;-80
2024/02/28 02:08:07;;;;;;;6.13;5.63;;;;;;;5.34;100.00;92881.97;2102194;28;20136;-81
2024/02/28 02:09:08;;;;;;;5.60;5.20;;;;;;;5.32;100.00;92887.69;2114358;28;20035;-81
2024/02/28 02:10:12;;;;;;;5.60;5.20;;;;;;;5.19;100.00;92879.41;2114466;28;20023;-82
2024/02/28 02:11:14;;;;;;;5.75;5.35;;;;;;;5.20;100.00;92886.22;2114249;28;20020;-80
2024/02/28 02:12:16;;;;;;;5.65;5.25;;;;;;;5.35;100.00;92886.88;2098257;28;20031;-81
2024/02/28 02:13:17;;;;;;;5.53;5.13;;;;;;;5.37;100.00;92881.97;2114488;28;20015;-79
2024/02/28 02:14:18;;;;;;;5.68;5.28;;;;;;;5.52;100.00;92890.56;2114337;28;20024;-82
2024/02/28 02:15:19;;;;;;;5.55;5.10;;;;;;;5.48;100.00;92895.88;2114385;27;20031;-80
2024/02/28 02:16:25;;;;;;;5.32;4.93;;;;;;;5.50;100.00;92898.16;2114277;28;20053;-81
2024/02/28 02:17:26;;;;;;;5.50;5.10;;;;;;;5.51;100.00;92899.69;2098434;28;20025;-82
2024/02/28 02:18:27;;;;;;;5.38;5.00;;;;;;;5.56;100.00;92904.56;2097276;28;20020;-83
2024/02/28 02:19:28;;;;;;;4.93;4.53;;;;;;;5.63;100.00;92898.47;2114309;28;20031;-80
2024/02/28 02:20:32;;;;;;;5.72;5.32;;;;;;;5.60;100.00;92901.88;2105971;28;20086;-80
2024/02/28 02:21:50;;;;;;;6.00;5.50;;;;;;;5.53;100.00;92908.75;2097943;28;20036;-82
2024/02/28 02:22:51;;;;;;;5.38;4.97;;;;;;;5.67;100.00;92899.97;2102339;28;20055;-81
2024/02/28 02:23:52;;;;;;;5.75;5.30;;;;;;;5.72;100.00;92906.75;2097897;28;20508;-81
2024/02/28 02:24:53;;;;;;;5.82;5.43;;;;;;;5.63;100.00;92906.44;2097572;28;20822;-81
2024/02/28 02:25:54;;;;;;;5.97;5.50;;;;;;;5.34;100.00;92906.59;2105886;28;20020;-84
2024/02/28 02:26:58;;;;;;;5.60;5.13;;;;;;;5.50;100.00;92904.22;2103927;28;20357;-82
2024/02/28 02:27:59;;;;;;;5.65;5.25;;;;;;;5.59;100.00;92906.44;2106192;28;20054;-80
2024/02/28 02:29:00;;;;;;;6.57;5.97;;;;;;;5.51;100.00;92907.63;2105956;28;20092;-82
2024/02/28 02:30:01;;;;;;;5.78;5.28;;;;;;;5.61;100.00;92900.75;2097653;28;20793;-82
2024/02/28 02:31:02;;;;;;;6.20;5.80;;;;;;;5.51;100.00;92905.72;2118404;28;20045;-81
2024/02/28 02:32:04;;;;;;;6.22;5.72;;;;;;;5.62;100.00;92905.69;2114739;28;20085;-81
2024/02/28 02:33:06;;;;;;;6.40;5.90;;;;;;;5.67;100.00;92899.97;2109439;28;20039;-79
2024/02/28 02:34:07;;;;;;;6.28;5.82;;;;;;;5.56;100.00;92910.63;2089601;28;20548;-80
2024/02/28 02:35:08;;;;;;;6.35;5.85;;;;;;;5.63;100.00;92909.06;2097794;28;20091;-81
2024/02/28 02:36:09;;;;;;;7.60;6.10;;;;;;;5.58;100.00;92914.78;2102249;28;20388;-81
2024/02/28 02:37:13;;;;;;;6.20;5.70;;;;;;;5.61;100.00;92914.00;2093545;28;20039;-82
2024/02/28 02:38:14;;;;;;;6.32;5.72;;;;;;;5.48;100.00;92911.03;2112848;28;20020;-80
2024/02/28 02:39:15;;;;;;;6.65;6.15;;;;;;;5.47;100.00;92907.66;2114163;28;20028;-81
2024/02/28 02:40:16;;;;;;;6.72;6.22;;;;;;;5.49;100.00;92913.31;2107689;28;20024;-80
2024/02/28 02:41:18;;;;;;;6.38;5.88;;;;;;;5.52;100.00;92911.78;2114301;28;20023;-82
2024/02/28 02:42:19;;;;;;;6.50;6.10;;;;;;;5.42;100.00;92907.31;2106005;28;20027;-82
2024/02/28 02:43:20;;;;;;;6.35;5.90;;;;;;;5.50;100.00;92917.47;2105880;28;20519;-80
2024/02/28 02:44:21;;;;;;;6.40;5.90;;;;;;;5.52;100.00;92911.78;2104077;28;20043;-81
2024/02/28 02:45:22;;;;;;;6.50;6.00;;;;;;;5.39;100.00;92919.41;2105749;28;20023;-82
2024/02/28 02:46:23;;;;;;;6.60;6.10;;;;;;;5.41;100.00;92913.75;2097528;28;20044;-82
2024/02/28 02:47:24;;;;;;;6.88;6.28;;;;;;;5.50;100.00;92912.19;2105818;28;20024;-82
2024/02/28 02:48:25;;;;;;;6.70;6.10;;;;;;;5.44;100.00;92915.59;2114171;28;20054;-82
2024/02/28 02:49:26;;;;;;;6.85;6.28;;;;;;;5.47;100.00;92920.91;2097549;28;20032;-82
2024/02/28 02:50:27;;;;;;;7.07;6.47;;;;;;;5.48;100.00;92919.75;2097532;28;20070;-81
2024/02/28 02:51:28;;;;;;;6.68;6.18;;;;;;;5.34;100.00;92919.09;2121894;28;20441;-82
2024/02/28 02:52:29;;;;;;;6.60;6.10;;;;;;;5.46;100.00;92916.00;2122754;28;20379;-81
2024/02/28 02:53:30;;;;;;;7.00;6.40;;;;;;;5.51;100.00;92916.31;2105731;28;20476;-80
2024/02/28 02:54:31;;;;;;;6.97;6.47;;;;;;;5.61;100.00;92917.41;2113762;28;20399;-81
2024/02/28 02:55:32;;;;;;;7.03;6.43;;;;;;;5.57;100.00;92924.63;2114148;28;20372;-82
2024/02/28 02:56:33;;;;;;;6.53;5.93;;;;;;;5.56;100.00;92921.22;2105313;28;20024;-80
2024/02/28 02:57:33;;;;;;;6.55;6.05;;;;;;;5.48;100.00;92914.44;2105701;28;20392;-84
2024/02/28 02:58:34;;;;;;;6.65;6.07;;;;;;;5.53;100.00;92923.88;2097482;28;20090;-83
2024/02/28 02:59:36;;;;;;;6.78;6.28;;;;;;;5.52;100.00;92919.72;2109784;28;20027;-81
2024/02/28 03:00:37;;;;;;;6.10;5.70;;;;;;;5.59;100.00;92922.34;2106611;28;20483;-80
2024/02/28 03:01:38;;;;;;;6.68;6.18;;;;;;;5.57;100.00;92927.28;2118645;28;20020;-80
2024/02/28 03:02:40;;;;;;;6.72;6.13;;;;;;;5.57;100.00;92921.97;2116063;28;20106;-83
2024/02/28 03:03:41;;;;;;;6.28;5.85;;;;;;;5.59;100.00;92921.59;2114068;28;20522;-81
2024/02/28 03:04:41;;;;;;;6.60;6.10;;;;;;;5.45;100.00;92931.16;2105601;28;20023;-82
2024/02/28 03:05:51;;;;;;;6.80;6.20;;;;;;;5.45;100.00;92925.84;2098576;28;20484;-81
2024/02/28 03:06:52;;;;;;;7.00;6.47;;;;;;;5.52;100.00;92928.44;2108127;28;20016;-82
2024/02/28 03:07:53;;;;;;;6.97;6.43;;;;;;;5.58;100.00;92928.81;2122034;28;20455;-81
2024/02/28 03:08:54;;;;;;;6.90;6.40;;;;;;;5.62;100.00;92931.41;2105759;28;20922;-80
2024/02/28 03:09:55;;;;;;;6.80;6.30;;;;;;;5.49;100.00;92926.59;2114197;28;20024;-81
2024/02/28 03:10:56;;;;;;;7.53;6.93;;;;;;;5.46;100.00;92929.25;2123198;28;20688;-82
2024/02/28 03:11:57;;;;;;;7.50;6.97;;;;;;;5.53;100.00;92929.97;2119290;28;20027;-82
2024/02/28 03:12:58;;;;;;;7.28;6.63;;;;;;;5.44;100.00;92936.81;2105805;28;20024;-81
2024/02/28 03:13:59;;;;;;;7.55;6.95;;;;;;;5.50;100.00;92937.94;2089232;28;20059;-82
2024/02/28 03:15:00;;;;;;;7.18;6.57;;;;;;;5.46;100.00;92934.53;2097696;28;20031;-80
2024/02/28 03:16:03;;;;;;;7.20;6.70;;;;;;;5.47;100.00;92936.06;2105776;28;20024;-80
2024/02/28 03:17:04;;;;;;;7.90;7.20;;;;;;;5.43;100.00;92930.75;2106046;28;20016;-82
2024/02/28 03:18:05;;;;;;;7.95;7.15;;;;;;;5.43;100.00;92936.06;2105842;28;20482;-82
2024/02/28 03:19:06;;;;;;;7.72;7.05;;;;;;;5.57;100.00;92943.19;2114192;28;20027;-81
2024/02/28 03:20:08;;;;;;;7.60;7.00;;;;;;;5.56;100.00;92941.69;2114136;28;20050;-82
2024/02/28 03:21:09;;;;;;;7.28;6.68;;;;;;;5.55;100.00;92940.94;2113958;28;20032;-82
2024/02/28 03:22:10;;;;;;;7.28;6.68;;;;;;;5.51;100.00;92939.44;2114591;28;20032;-82
2024/02/28 03:23:10;;;;;;;7.22;6.63;;;;;;;5.44;100.00;92944.75;2114646;28;20416;-81
2024/02/28 03:24:11;;;;;;;7.20;6.50;;;;;;;5.48;100.00;92935.66;2114688;28;20456;-81
2024/02/28 03:25:12;;;;;;;7.50;6.90;;;;;;;5.52;100.00;92940.94;2114070;28;20111;-82
2024/02/28 03:26:36;;;;;;;7.35;6.72;;;;;;;5.53;100.00;92937.91;2097675;28;20042;-81
2024/02/28 03:27:37;;;;;;;7.47;6.82;;;;;;;5.62;100.00;92942.00;2116207;28;20024;-80
2024/02/28 03:28:38;;;;;;;7.20;6.60;;;;;;;5.61;100.00;92940.50;2122350;28;20158;-80
2024/02/28 03:29:39;;;;;;;7.13;6.45;;;;;;;5.49;100.00;92945.13;2114115;28;20054;-81
2024/02/28 03:30:40;;;;;;;7.10;6.50;;;;;;;5.51;100.00;92944.75;2107215;28;20024;-82
2024/02/28 03:31:41;;;;;;;6.88;6.18;;;;;;;5.44;100.00;92939.47;2101530;28;20028;-80
2024/02/28 03:32:42;;;;;;;6.68;6.10;;;;;;;5.44;100.00;92939.47;2107011;28;20103;-80
2024/02/28 03:33:43;;;;;;;7.18;6.68;;;;;;;5.49;100.00;92947.78;2117970;27;20384;-82
2024/02/28 03:34:44;;;;;;;7.68;7.00;;;;;;;5.36;100.00;92943.31;2125471;27;20022;-80
2024/02/28 03:35:45;;;;;;;7.03;6.43;;;;;;;5.49;100.00;92947.78;2120818;27;20019;-81
2024/02/28 03:36:46;;;;;;;7.43;6.78;;;;;;;5.38;100.00;92948.97;2105858;28;20025;-83
2024/02/28 03:37:47;;;;;;;7.95;7.25;;;;;;;5.32;100.00;92953.94;2097767;28;20013;-81
2024/02/28 03:38:48;;;;;;;7.57;6.85;;;;;;;5.35;100.00;92955.03;2098605;28;20485;-80
2024/02/28 03:39:48;;;;;;;7.32;6.72;;;;;;;5.36;100.00;92954.66;2098910;28;20016;-82
2024/02/28 03:40:49;;;;;;;7.38;6.80;;;;;;;5.44;100.00;92956.13;2107023;28;20035;-81
2024/02/28 03:41:50;;;;;;;7.40;6.80;;;;;;;5.40;100.00;92960.72;2098756;28;20037;-82
2024/02/28 03:42:51;;;;;;;7.20;6.63;;;;;;;5.44;100.00;92956.13;2107142;28;20516;-81
2024/02/28 03:43:52;;;;;;;7.32;6.68;;;;;;;5.35;100.00;92955.78;2107115;28;20077;-81
2024/02/28 03:44:53;;;;;;;7.28;6.68;;;;;;;5.43;100.00;92949.31;2115426;28;20028;-80
2024/02/28 03:45:54;;;;;;;7.63;6.97;;;;;;;5.34;100.00;92954.28;2115573;28;20503;-81
2024/02/28 03:47:20;;;;;;;6.80;6.20;;;;;;;5.27;100.00;92952.44;2098969;28;20111;-81
2024/02/28 03:48:21;;;;;;;7.25;6.68;;;;;;;5.21;100.00;92953.22;2114383;27;20403;-82
2024/02/28 03:49:23;;;;;;;7.20;6.60;;;;;;;5.27;100.00;92955.09;2107047;28;20024;-81
2024/02/28 03:50:24;;;;;;;6.70;6.10;;;;;;;5.41;100.00;92953.50;2098739;28;20052;-82
2024/02/28 03:51:24;;;;;;;7.07;6.47;;;;;;;5.43;100.00;92951.22;2107051;28;20020;-81
2024/02/28 03:52:25;;;;;;;7.35;6.63;;;;;;;5.41;100.00;92958.81;2098684;28;20035;-82
2024/02/28 03:53:26;;;;;;;6.50;6.00;;;;;;;5.37;100.00;92952.78;2098764;28;20123;-82
2024/02/28 03:54:27;;;;;;;6.68;6.18;;;;;;;5.39;100.00;92958.44;2106988;28;20020;-81
2024/02/28 03:55:28;;;;;;;6.63;6.07;;;;;;;5.32;100.00;92956.56;2098730;28;20090;-83
2024/02/28 03:56:29;;;;;;;6.65;6.15;;;;;;;5.29;100.00;92957.34;2098449;28;20036;-81
2024/02/28 03:57:30;;;;;;;6.60;6.00;;;;;;;5.22;100.00;92962.66;2109603;28;20391;-81
2024/02/28 03:58:31;;;;;;;7.30;6.70;;;;;;;5.22;100.00;92958.16;2108324;28;20507;-82
2024/02/28 03:59:32;;;;;;;6.80;6.30;;;;;;;5.20;100.00;92960.41;2107132;28;20090;-81
2024/02/28 04:00:33;;;;;;;6.70;6.20;;;;;;;5.27;100.00;92957.72;2115491;28;20023;-81
2024/02/28 04:01:34;;;;;;;6.68;6.13;;;;;;;5.25;100.00;92959.25;2119644;27;20031;-83
2024/02/28 04:02:35;;;;;;;7.03;6.43;;;;;;;5.12;100.00;92956.28;2124804;27;20072;-81
2024/02/28 04:03:36;;;;;;;7.25;6.65;;;;;;;5.23;100.00;92966.84;2115553;28;20062;-81
2024/02/28 04:04:37;;;;;;;6.50;6.00;;;;;;;5.21;100.00;92956.59;2121495;27;20463;-81
2024/02/28 04:05:38;;;;;;;7.15;6.43;;;;;;;5.30;100.00;92956.94;2116119;27;20027;-81
2024/02/28 04:06:39;;;;;;;7.15;6.50;;;;;;;5.05;100.00;92956.31;2110904;28;20019;-80
2024/02/28 04:07:40;;;;;;;6.78;6.20;;;;;;;5.21;100.00;92958.50;2114137;28;20108;-81
2024/02/28 04:08:42;;;;;;;6.88;6.35;;;;;;;5.21;100.00;92961.91;2116923;28;20072;-82
2024/02/28 04:09:43;;;;;;;7.10;6.55;;;;;;;5.22;100.00;92950.19;2115532;28;20031;-81
2024/02/28 04:10:43;;;;;;;6.70;6.20;;;;;;;5.23;100.00;92953.59;2115526;28;20618;-81
2024/02/28 04:11:44;;;;;;;7.25;6.68;;;;;;;5.21;100.00;92953.22;2106885;28;20518;-81
2024/02/28 04:12:45;;;;;;;6.47;5.88;;;;;;;5.25;100.00;92956.59;2106885;28;20020;-82
2024/02/28 04:13:46;;;;;;;6.63;6.03;;;;;;;5.33;100.00;92949.38;2107122;28;20028;-82
2024/02/28 04:14:47;;;;;;;6.38;5.78;;;;;;;5.19;100.00;92952.84;2107093;28;20047;-82
2024/02/28 04:15:48;;;;;;;6.80;6.25;;;;;;;5.32;100.00;92963.78;2107165;28;20038;-81
2024/02/28 04:16:50;;;;;;;6.07;5.57;;;;;;;5.20;100.00;92960.41;2106989;28;20028;-81
2024/02/28 04:17:51;;;;;;;6.15;5.70;;;;;;;5.20;100.00;92955.09;2115401;27;20027;-79
2024/02/28 04:18:52;;;;;;;6.53;6.00;;;;;;;5.19;100.00;92956.25;2106891;28;20085;-81
2024/02/28 04:19:53;;;;;;;6.28;5.72;;;;;;;5.20;100.00;92968.34;2098767;28;20376;-81
2024/02/28 04:20:54;;;;;;;6.43;5.88;;;;;;;5.23;100.00;92964.19;2115299;28;20019;-81
2024/02/28 04:21:55;;;;;;;5.78;5.32;;;;;;;5.20;100.00;92963.06;2115616;28;20035;-79
2024/02/28 04:22:56;;;;;;;6.00;5.50;;;;;;;5.13;100.00;92960.44;2107334;28;20475;-79
2024/02/28 04:23:56;;;;;;;6.43;5.82;;;;;;;5.10;100.00;92955.91;2107060;28;20038;-80
2024/02/28 04:24:57;;;;;;;6.15;5.65;;;;;;;5.07;100.00;92958.56;2107377;28;20027;-80
2024/02/28 04:25:58;;;;;;;6.25;5.75;;;;;;;5.05;100.00;92961.63;2098501;28;20024;-81
2024/02/28 04:27:00;;;;;;;5.80;5.40;;;;;;;5.14;100.00;92959.31;2107077;28;20112;-82
2024/02/28 04:28:01;;;;;;;6.22;5.63;;;;;;;5.20;100.00;92964.94;2115059;28;20399;-80
2024/02/28 04:29:07;;;;;;;5.85;5.45;;;;;;;5.19;100.00;92966.09;2106604;28;20502;-80
2024/02/28 04:30:08;;;;;;;6.25;5.70;;;;;;;5.23;100.00;92959.66;2111096;27;20106;-79
2024/02/28 04:31:09;;;;;;;6.65;6.05;;;;;;;5.23;100.00;92958.91;2118064;27;20098;-80
2024/02/28 04:32:10;;;;;;;6.20;5.68;;;;;;;5.09;100.00;92959.69;2106181;28;20065;-82
2024/02/28 04:33:11;;;;;;;6.28;5.78;;;;;;;5.18;100.00;92959.28;2106733;28;20446;-80
2024/02/28 04:34:12;;;;;;;6.35;5.75;;;;;;;5.14;100.00;92959.31;2117972;27;20027;-79
2024/02/28 04:35:18;;;;;;;6.38;5.88;;;;;;;5.11;100.00;92960.06;2101831;28;20056;-79
2024/02/28 04:36:19;;;;;;;6.43;5.93;;;;;;;5.20;100.00;92964.94;2109825;28;20024;-81
2024/02/28 04:37:22;;;;;;;6.38;5.80;;;;;;;5.17;100.00;92966.47;2118017;27;20054;-82
2024/02/28 04:38:23;;;;;;;6.38;5.88;;;;;;;5.12;100.00;92966.88;2123585;27;20019;-80
2024/02/28 04:39:24;;;;;;;6.50;6.00;;;;;;;5.11;100.00;92969.91;2115115;28;20019;-81
2024/02/28 04:40:25;;;;;;;7.00;6.40;;;;;;;5.24;100.00;92971.75;2106835;28;20031;-80
2024/02/28 04:41:27;;;;;;;6.18;5.72;;;;;;;5.26;100.00;92971.34;2114950;28;20031;-79
2024/02/28 04:42:28;;;;;;;6.28;5.68;;;;;;;5.20;100.00;92971.00;2123577;27;20019;-80
2024/02/28 04:43:29;;;;;;;7.25;6.57;;;;;;;5.14;100.00;92977.84;2123709;27;20090;-80
2024/02/28 04:44:30;;;;;;;6.80;6.20;;;;;;;5.15;100.00;92978.59;2115151;28;20586;-80
2024/02/28 04:45:31;;;;;;;6.50;5.97;;;;;;;5.14;100.00;92985.81;2115007;28;20024;-80
2024/02/28 04:46:34;;;;;;;6.78;6.18;;;;;;;5.23;100.00;92985.38;2123562;27;20031;-82
2024/02/28 04:47:36;;;;;;;6.80;6.20;;;;;;;5.08;100.00;92987.31;2114962;28;20710;-81
2024/02/28 04:48:37;;;;;;;6.55;5.95;;;;;;;5.11;100.00;92991.84;2106859;28;20039;-80
2024/02/28 04:49:38;;;;;;;6.35;5.85;;;;;;;5.18;100.00;92988.41;2115081;28;20028;-81
2024/02/28 04:50:39;;;;;;;6.55;5.97;;;;;;;5.22;100.00;92992.59;2123431;27;20023;-79